sensor_id;sensor_type;location;lat;lon;timestamp;temperature;humidity
23335;DHT22;11839;48.598;8.870;2024-03-02T00:00:38;8.30;99.90
23335;DHT22;11839;48.598;8.870;2024-03-02T00:03:07;8.30;99.90
23335;DHT22;11839;48.598;8.870;2024-03-02T00:05:35;8.40;99.90
23335;DHT22;11839;48.598;8.870;2024-03-02T00:08:04;8.50;99.90
23335;DHT22;11839;48.598;8.870;2024-03-02T00:10:36;8.50;99.90
23335;DHT22;11839;48.598;8.870;2024-03-02T00:13:05;8.60;99.90
23335;DHT22;11839;48.598;8.870;2024-03-02T00:15:41;8.70;99.90
23335;DHT22;11839;48.598;8.870;2024-03-02T00:18:12;8.60;99.90
23335;DHT22;11839;48.598;8.870;2024-03-02T00:20:40;8.50;99.90
23335;DHT22;11839;48.598;8.870;2024-03-02T00:23:08;8.70;99.90
23335;DHT22;11839;48.598;8.870;2024-03-02T00:25:38;8.50;99.90
23335;DHT22;11839;48.598;8.870;2024-03-02T00:28:09;8.40;99.90
23335;DHT22;11839;48.598;8.870;2024-03-02T00:30:55;8.00;99.90
23335;DHT22;11839;48.598;8.870;2024-03-02T00:33:26;8.00;99.90
23335;DHT22;11839;48.598;8.870;2024-03-02T00:35:53;8.20;99.90
23335;DHT22;11839;48.598;8.870;2024-03-02T00:38:20;8.30;99.90
23335;DHT22;11839;48.598;8.870;2024-03-02T00:40:48;8.30;99.90
23335;DHT22;11839;48.598;8.870;2024-03-02T00:43:45;8.50;99.90
23335;DHT22;11839;48.598;8.870;2024-03-02T00:46:17;8.40;99.90
23335;DHT22;11839;48.598;8.870;2024-03-02T00:49:01;8.40;99.90
23335;DHT22;11839;48.598;8.870;2024-03-02T00:51:29;8.40;99.90
23335;DHT22;11839;48.598;8.870;2024-03-02T00:53:58;8.00;99.90
23335;DHT22;11839;48.598;8.870;2024-03-02T00:56:26;8.20;99.90
23335;DHT22;11839;48.598;8.870;2024-03-02T00:58:53;7.90;99.90
23335;DHT22;11839;48.598;8.870;2024-03-02T01:01:20;7.80;99.90
23335;DHT22;11839;48.598;8.870;2024-03-02T01:03:47;7.90;99.90
23335;DHT22;11839;48.598;8.870;2024-03-02T01:06:16;7.90;99.90
23335;DHT22;11839;48.598;8.870;2024-03-02T01:08:44;7.90;99.90
23335;DHT22;11839;48.598;8.870;2024-03-02T01:11:11;7.90;99.90
23335;DHT22;11839;48.598;8.870;2024-03-02T01:13:38;8.00;99.90
23335;DHT22;11839;48.598;8.870;2024-03-02T01:16:05;7.80;99.90
23335;DHT22;11839;48.598;8.870;2024-03-02T01:18:32;7.80;99.90
23335;DHT22;11839;48.598;8.870;2024-03-02T01:20:59;8.00;99.90
23335;DHT22;11839;48.598;8.870;2024-03-02T01:23:28;8.00;99.90
23335;DHT22;11839;48.598;8.870;2024-03-02T01:25:55;8.00;99.90
23335;DHT22;11839;48.598;8.870;2024-03-02T01:28:22;7.90;99.90
23335;DHT22;11839;48.598;8.870;2024-03-02T01:30:49;7.90;99.90
23335;DHT22;11839;48.598;8.870;2024-03-02T01:33:16;7.90;99.90
23335;DHT22;11839;48.598;8.870;2024-03-02T01:35:43;7.90;99.90
23335;DHT22;11839;48.598;8.870;2024-03-02T01:38:09;7.90;99.90
23335;DHT22;11839;48.598;8.870;2024-03-02T01:40:38;8.00;99.90
23335;DHT22;11839;48.598;8.870;2024-03-02T01:43:05;7.80;99.90
23335;DHT22;11839;48.598;8.870;2024-03-02T01:45:33;7.70;99.90
23335;DHT22;11839;48.598;8.870;2024-03-02T01:48:00;7.80;99.90
23335;DHT22;11839;48.598;8.870;2024-03-02T01:50:29;7.80;99.90
23335;DHT22;11839;48.598;8.870;2024-03-02T01:52:56;7.60;99.90
23335;DHT22;11839;48.598;8.870;2024-03-02T01:55:23;7.60;99.90
23335;DHT22;11839;48.598;8.870;2024-03-02T01:57:52;7.50;99.90
23335;DHT22;11839;48.598;8.870;2024-03-02T02:00:20;7.30;99.90
23335;DHT22;11839;48.598;8.870;2024-03-02T02:02:48;7.40;99.90
23335;DHT22;11839;48.598;8.870;2024-03-02T02:05:15;7.70;99.90
23335;DHT22;11839;48.598;8.870;2024-03-02T02:07:42;7.90;99.90
23335;DHT22;11839;48.598;8.870;2024-03-02T02:10:09;8.10;99.90
23335;DHT22;11839;48.598;8.870;2024-03-02T02:12:37;8.30;99.90
23335;DHT22;11839;48.598;8.870;2024-03-02T02:15:24;8.30;99.90
23335;DHT22;11839;48.598;8.870;2024-03-02T02:17:52;8.20;99.90
23335;DHT22;11839;48.598;8.870;2024-03-02T02:20:19;7.90;99.90
23335;DHT22;11839;48.598;8.870;2024-03-02T02:22:58;7.80;99.90
23335;DHT22;11839;48.598;8.870;2024-03-02T02:25:25;7.90;99.90
23335;DHT22;11839;48.598;8.870;2024-03-02T02:27:52;7.70;99.90
23335;DHT22;11839;48.598;8.870;2024-03-02T02:30:20;7.30;99.90
23335;DHT22;11839;48.598;8.870;2024-03-02T02:32:47;7.30;99.90
23335;DHT22;11839;48.598;8.870;2024-03-02T02:35:14;7.10;99.90
23335;DHT22;11839;48.598;8.870;2024-03-02T02:37:41;7.30;99.90
23335;DHT22;11839;48.598;8.870;2024-03-02T02:40:11;7.30;99.90
23335;DHT22;11839;48.598;8.870;2024-03-02T02:42:38;7.30;99.90
23335;DHT22;11839;48.598;8.870;2024-03-02T02:45:05;7.10;99.90
23335;DHT22;11839;48.598;8.870;2024-03-02T02:47:32;6.90;99.90
23335;DHT22;11839;48.598;8.870;2024-03-02T02:50:01;7.20;99.90
23335;DHT22;11839;48.598;8.870;2024-03-02T02:52:31;7.20;99.90
23335;DHT22;11839;48.598;8.870;2024-03-02T02:54:58;6.90;99.90
23335;DHT22;11839;48.598;8.870;2024-03-02T02:57:27;7.10;99.90
23335;DHT22;11839;48.598;8.870;2024-03-02T02:59:55;7.20;99.90
23335;DHT22;11839;48.598;8.870;2024-03-02T03:02:22;7.30;99.90
23335;DHT22;11839;48.598;8.870;2024-03-02T03:04:49;7.00;99.90
23335;DHT22;11839;48.598;8.870;2024-03-02T03:07:16;6.70;99.90
23335;DHT22;11839;48.598;8.870;2024-03-02T03:09:43;6.60;99.90
23335;DHT22;11839;48.598;8.870;2024-03-02T03:12:09;6.80;99.90
23335;DHT22;11839;48.598;8.870;2024-03-02T03:14:37;6.90;99.90
23335;DHT22;11839;48.598;8.870;2024-03-02T03:17:06;6.60;99.90
23335;DHT22;11839;48.598;8.870;2024-03-02T03:19:33;6.70;99.90
23335;DHT22;11839;48.598;8.870;2024-03-02T03:22:02;6.80;99.90
23335;DHT22;11839;48.598;8.870;2024-03-02T03:24:29;7.00;99.90
23335;DHT22;11839;48.598;8.870;2024-03-02T03:26:58;7.10;99.90
23335;DHT22;11839;48.598;8.870;2024-03-02T03:29:25;7.10;99.90
23335;DHT22;11839;48.598;8.870;2024-03-02T03:31:53;7.10;99.90
23335;DHT22;11839;48.598;8.870;2024-03-02T03:34:19;6.90;99.90
23335;DHT22;11839;48.598;8.870;2024-03-02T03:36:46;6.80;99.90
23335;DHT22;11839;48.598;8.870;2024-03-02T03:39:13;6.70;99.90
23335;DHT22;11839;48.598;8.870;2024-03-02T03:41:40;6.80;99.90
23335;DHT22;11839;48.598;8.870;2024-03-02T03:44:07;6.70;99.90
23335;DHT22;11839;48.598;8.870;2024-03-02T03:46:35;6.30;99.90
23335;DHT22;11839;48.598;8.870;2024-03-02T03:49:03;6.30;99.90
23335;DHT22;11839;48.598;8.870;2024-03-02T03:51:30;6.40;99.90
23335;DHT22;11839;48.598;8.870;2024-03-02T03:53:57;6.70;99.90
23335;DHT22;11839;48.598;8.870;2024-03-02T03:56:24;6.70;99.90
23335;DHT22;11839;48.598;8.870;2024-03-02T03:58:52;6.60;99.90
23335;DHT22;11839;48.598;8.870;2024-03-02T04:01:19;6.20;99.90
23335;DHT22;11839;48.598;8.870;2024-03-02T04:03:47;6.30;99.90
23335;DHT22;11839;48.598;8.870;2024-03-02T04:06:15;6.30;99.90
23335;DHT22;11839;48.598;8.870;2024-03-02T04:08:43;6.00;99.90
23335;DHT22;11839;48.598;8.870;2024-03-02T04:11:09;6.00;99.90
23335;DHT22;11839;48.598;8.870;2024-03-02T04:13:36;6.10;99.90
23335;DHT22;11839;48.598;8.870;2024-03-02T04:16:03;6.10;99.90
23335;DHT22;11839;48.598;8.870;2024-03-02T04:18:30;6.00;99.90
23335;DHT22;11839;48.598;8.870;2024-03-02T04:20:57;5.70;99.90
23335;DHT22;11839;48.598;8.870;2024-03-02T04:23:26;5.90;99.90
23335;DHT22;11839;48.598;8.870;2024-03-02T04:25:53;6.20;99.90
23335;DHT22;11839;48.598;8.870;2024-03-02T04:28:19;6.40;99.90
23335;DHT22;11839;48.598;8.870;2024-03-02T04:30:46;6.40;99.90
23335;DHT22;11839;48.598;8.870;2024-03-02T04:33:13;6.60;99.90
23335;DHT22;11839;48.598;8.870;2024-03-02T04:35:40;6.40;99.90
23335;DHT22;11839;48.598;8.870;2024-03-02T04:38:06;6.40;99.90
23335;DHT22;11839;48.598;8.870;2024-03-02T04:40:35;6.20;99.90
23335;DHT22;11839;48.598;8.870;2024-03-02T04:43:01;6.40;99.90
23335;DHT22;11839;48.598;8.870;2024-03-02T04:45:29;6.70;99.90
23335;DHT22;11839;48.598;8.870;2024-03-02T04:47:56;6.80;99.90
23335;DHT22;11839;48.598;8.870;2024-03-02T04:50:22;6.40;99.90
23335;DHT22;11839;48.598;8.870;2024-03-02T04:52:49;6.40;99.90
23335;DHT22;11839;48.598;8.870;2024-03-02T04:55:16;6.50;99.90
23335;DHT22;11839;48.598;8.870;2024-03-02T04:58:17;6.60;99.90
23335;DHT22;11839;48.598;8.870;2024-03-02T05:00:44;6.70;99.90
23335;DHT22;11839;48.598;8.870;2024-03-02T05:03:11;6.60;99.90
23335;DHT22;11839;48.598;8.870;2024-03-02T05:05:38;6.40;99.90
23335;DHT22;11839;48.598;8.870;2024-03-02T05:08:05;5.80;99.90
23335;DHT22;11839;48.598;8.870;2024-03-02T05:10:32;5.80;99.90
23335;DHT22;11839;48.598;8.870;2024-03-02T05:12:59;5.90;99.90
23335;DHT22;11839;48.598;8.870;2024-03-02T05:15:26;5.90;99.90
23335;DHT22;11839;48.598;8.870;2024-03-02T05:17:53;6.00;99.90
23335;DHT22;11839;48.598;8.870;2024-03-02T05:20:20;6.00;99.90
23335;DHT22;11839;48.598;8.870;2024-03-02T05:22:46;5.90;99.90
23335;DHT22;11839;48.598;8.870;2024-03-02T05:25:14;6.10;99.90
23335;DHT22;11839;48.598;8.870;2024-03-02T05:27:40;6.20;99.90
23335;DHT22;11839;48.598;8.870;2024-03-02T05:30:08;6.20;99.90
23335;DHT22;11839;48.598;8.870;2024-03-02T05:32:36;6.30;99.90
23335;DHT22;11839;48.598;8.870;2024-03-02T05:35:04;6.50;99.90
23335;DHT22;11839;48.598;8.870;2024-03-02T05:37:31;6.40;99.90
23335;DHT22;11839;48.598;8.870;2024-03-02T05:39:58;6.30;99.90
23335;DHT22;11839;48.598;8.870;2024-03-02T05:42:25;6.10;99.90
23335;DHT22;11839;48.598;8.870;2024-03-02T05:44:53;6.10;99.90
23335;DHT22;11839;48.598;8.870;2024-03-02T05:47:20;6.00;99.90
23335;DHT22;11839;48.598;8.870;2024-03-02T05:49:48;6.10;99.90
23335;DHT22;11839;48.598;8.870;2024-03-02T05:52:15;5.90;99.90
23335;DHT22;11839;48.598;8.870;2024-03-02T05:54:42;5.90;99.90
23335;DHT22;11839;48.598;8.870;2024-03-02T05:57:09;6.00;99.90
23335;DHT22;11839;48.598;8.870;2024-03-02T05:59:59;5.90;99.90
23335;DHT22;11839;48.598;8.870;2024-03-02T06:02:25;6.10;99.90
23335;DHT22;11839;48.598;8.870;2024-03-02T06:04:55;5.90;99.90
23335;DHT22;11839;48.598;8.870;2024-03-02T06:07:22;5.70;99.90
23335;DHT22;11839;48.598;8.870;2024-03-02T06:09:49;5.60;99.90
23335;DHT22;11839;48.598;8.870;2024-03-02T06:12:17;5.80;99.90
23335;DHT22;11839;48.598;8.870;2024-03-02T06:14:45;5.90;99.90
23335;DHT22;11839;48.598;8.870;2024-03-02T06:17:12;5.90;99.90
23335;DHT22;11839;48.598;8.870;2024-03-02T06:19:39;6.10;99.90
23335;DHT22;11839;48.598;8.870;2024-03-02T06:22:07;6.10;99.90
23335;DHT22;11839;48.598;8.870;2024-03-02T06:24:36;5.90;99.90
23335;DHT22;11839;48.598;8.870;2024-03-02T06:27:03;5.90;99.90
23335;DHT22;11839;48.598;8.870;2024-03-02T06:29:29;5.60;99.90
23335;DHT22;11839;48.598;8.870;2024-03-02T06:31:58;5.70;99.90
23335;DHT22;11839;48.598;8.870;2024-03-02T06:34:25;5.70;99.90
23335;DHT22;11839;48.598;8.870;2024-03-02T06:36:52;5.60;99.90
23335;DHT22;11839;48.598;8.870;2024-03-02T06:39:20;5.70;99.90
23335;DHT22;11839;48.598;8.870;2024-03-02T06:41:47;5.60;99.90
23335;DHT22;11839;48.598;8.870;2024-03-02T06:44:13;5.70;99.90
23335;DHT22;11839;48.598;8.870;2024-03-02T06:46:40;5.80;99.90
23335;DHT22;11839;48.598;8.870;2024-03-02T06:49:07;5.90;99.90
23335;DHT22;11839;48.598;8.870;2024-03-02T06:51:36;6.10;99.90
23335;DHT22;11839;48.598;8.870;2024-03-02T06:54:02;6.00;99.90
23335;DHT22;11839;48.598;8.870;2024-03-02T06:56:31;5.80;99.90
23335;DHT22;11839;48.598;8.870;2024-03-02T06:58:58;5.50;99.90
23335;DHT22;11839;48.598;8.870;2024-03-02T07:01:25;5.80;99.90
23335;DHT22;11839;48.598;8.870;2024-03-02T07:03:53;5.80;99.90
23335;DHT22;11839;48.598;8.870;2024-03-02T07:06:22;5.90;99.90
23335;DHT22;11839;48.598;8.870;2024-03-02T07:08:49;5.80;99.90
23335;DHT22;11839;48.598;8.870;2024-03-02T07:11:16;6.10;99.90
23335;DHT22;11839;48.598;8.870;2024-03-02T07:13:44;6.10;99.90
23335;DHT22;11839;48.598;8.870;2024-03-02T07:16:11;6.00;99.90
23335;DHT22;11839;48.598;8.870;2024-03-02T07:18:54;6.00;99.90
23335;DHT22;11839;48.598;8.870;2024-03-02T07:21:21;6.10;99.90
23335;DHT22;11839;48.598;8.870;2024-03-02T07:23:48;6.30;99.90
23335;DHT22;11839;48.598;8.870;2024-03-02T07:26:15;6.40;99.90
23335;DHT22;11839;48.598;8.870;2024-03-02T07:28:45;6.00;99.90
23335;DHT22;11839;48.598;8.870;2024-03-02T07:31:13;5.80;99.90
23335;DHT22;11839;48.598;8.870;2024-03-02T07:33:40;5.60;99.90
23335;DHT22;11839;48.598;8.870;2024-03-02T07:36:08;5.70;99.90
23335;DHT22;11839;48.598;8.870;2024-03-02T07:38:34;6.00;99.90
23335;DHT22;11839;48.598;8.870;2024-03-02T07:41:01;6.20;99.90
23335;DHT22;11839;48.598;8.870;2024-03-02T07:43:30;6.20;99.90
23335;DHT22;11839;48.598;8.870;2024-03-02T07:45:59;6.10;99.90
23335;DHT22;11839;48.598;8.870;2024-03-02T07:48:26;6.40;99.90
23335;DHT22;11839;48.598;8.870;2024-03-02T07:50:53;6.40;99.90
23335;DHT22;11839;48.598;8.870;2024-03-02T07:53:20;6.50;99.90
23335;DHT22;11839;48.598;8.870;2024-03-02T07:55:47;6.40;99.90
23335;DHT22;11839;48.598;8.870;2024-03-02T07:58:13;6.50;99.90
23335;DHT22;11839;48.598;8.870;2024-03-02T08:00:41;6.70;99.90
23335;DHT22;11839;48.598;8.870;2024-03-02T08:03:11;6.70;99.90
23335;DHT22;11839;48.598;8.870;2024-03-02T08:05:40;7.20;99.90
23335;DHT22;11839;48.598;8.870;2024-03-02T08:08:07;7.40;99.90
23335;DHT22;11839;48.598;8.870;2024-03-02T08:10:34;7.50;99.90
23335;DHT22;11839;48.598;8.870;2024-03-02T08:13:02;7.50;99.90
23335;DHT22;11839;48.598;8.870;2024-03-02T08:15:29;7.60;99.90
23335;DHT22;11839;48.598;8.870;2024-03-02T08:17:56;8.00;99.90
23335;DHT22;11839;48.598;8.870;2024-03-02T08:20:25;8.00;99.90
23335;DHT22;11839;48.598;8.870;2024-03-02T08:22:52;8.30;99.90
23335;DHT22;11839;48.598;8.870;2024-03-02T08:25:20;8.40;99.90
23335;DHT22;11839;48.598;8.870;2024-03-02T08:27:47;8.50;99.90
23335;DHT22;11839;48.598;8.870;2024-03-02T08:30:14;8.80;99.90
23335;DHT22;11839;48.598;8.870;2024-03-02T08:32:41;8.90;99.90
23335;DHT22;11839;48.598;8.870;2024-03-02T08:35:08;9.10;99.90
23335;DHT22;11839;48.598;8.870;2024-03-02T08:37:37;9.20;99.90
23335;DHT22;11839;48.598;8.870;2024-03-02T08:40:07;9.40;99.90
23335;DHT22;11839;48.598;8.870;2024-03-02T08:42:34;9.60;99.90
23335;DHT22;11839;48.598;8.870;2024-03-02T08:45:01;9.80;99.90
23335;DHT22;11839;48.598;8.870;2024-03-02T08:47:28;10.20;99.90
23335;DHT22;11839;48.598;8.870;2024-03-02T08:49:55;10.30;99.90
23335;DHT22;11839;48.598;8.870;2024-03-02T08:52:21;10.30;99.90
23335;DHT22;11839;48.598;8.870;2024-03-02T08:54:50;10.70;99.90
23335;DHT22;11839;48.598;8.870;2024-03-02T08:57:18;10.60;99.90
23335;DHT22;11839;48.598;8.870;2024-03-02T08:59:45;10.70;99.90
23335;DHT22;11839;48.598;8.870;2024-03-02T09:02:11;10.80;99.90
23335;DHT22;11839;48.598;8.870;2024-03-02T09:04:38;10.90;99.90
23335;DHT22;11839;48.598;8.870;2024-03-02T09:07:05;10.90;99.90
23335;DHT22;11839;48.598;8.870;2024-03-02T09:09:33;10.90;99.90
23335;DHT22;11839;48.598;8.870;2024-03-02T09:12:05;10.80;99.90
23335;DHT22;11839;48.598;8.870;2024-03-02T09:14:32;10.90;99.90
23335;DHT22;11839;48.598;8.870;2024-03-02T09:16:59;11.00;99.90
23335;DHT22;11839;48.598;8.870;2024-03-02T09:19:26;10.80;99.90
23335;DHT22;11839;48.598;8.870;2024-03-02T09:21:53;10.80;99.90
23335;DHT22;11839;48.598;8.870;2024-03-02T09:24:21;10.80;99.90
23335;DHT22;11839;48.598;8.870;2024-03-02T09:26:47;10.90;99.90
23335;DHT22;11839;48.598;8.870;2024-03-02T09:29:16;11.20;99.90
23335;DHT22;11839;48.598;8.870;2024-03-02T09:31:43;11.40;99.90
23335;DHT22;11839;48.598;8.870;2024-03-02T09:34:12;11.20;99.90
23335;DHT22;11839;48.598;8.870;2024-03-02T09:36:39;11.50;99.90
23335;DHT22;11839;48.598;8.870;2024-03-02T09:39:07;11.40;99.90
23335;DHT22;11839;48.598;8.870;2024-03-02T09:41:35;11.30;99.90
23335;DHT22;11839;48.598;8.870;2024-03-02T09:44:02;11.10;99.90
23335;DHT22;11839;48.598;8.870;2024-03-02T09:46:31;11.40;99.90
23335;DHT22;11839;48.598;8.870;2024-03-02T09:48:58;11.50;99.90
23335;DHT22;11839;48.598;8.870;2024-03-02T09:51:25;11.30;99.90
23335;DHT22;11839;48.598;8.870;2024-03-02T09:53:52;11.50;99.90
23335;DHT22;11839;48.598;8.870;2024-03-02T09:56:21;11.60;99.90
23335;DHT22;11839;48.598;8.870;2024-03-02T09:58:48;11.80;99.90
23335;DHT22;11839;48.598;8.870;2024-03-02T10:01:15;12.00;99.90
23335;DHT22;11839;48.598;8.870;2024-03-02T10:03:44;11.80;99.90
23335;DHT22;11839;48.598;8.870;2024-03-02T10:06:19;11.60;99.90
23335;DHT22;11839;48.598;8.870;2024-03-02T10:08:47;11.70;99.90
23335;DHT22;11839;48.598;8.870;2024-03-02T10:11:26;12.10;99.90
23335;DHT22;11839;48.598;8.870;2024-03-02T10:14:04;12.40;99.90
23335;DHT22;11839;48.598;8.870;2024-03-02T10:16:34;12.50;99.90
23335;DHT22;11839;48.598;8.870;2024-03-02T10:19:15;12.40;99.90
23335;DHT22;11839;48.598;8.870;2024-03-02T10:21:54;12.40;99.90
23335;DHT22;11839;48.598;8.870;2024-03-02T10:24:22;12.60;99.90
23335;DHT22;11839;48.598;8.870;2024-03-02T10:26:50;12.60;99.90
23335;DHT22;11839;48.598;8.870;2024-03-02T10:29:17;12.50;99.90
23335;DHT22;11839;48.598;8.870;2024-03-02T10:31:45;12.50;99.90
23335;DHT22;11839;48.598;8.870;2024-03-02T10:34:14;12.60;99.90
23335;DHT22;11839;48.598;8.870;2024-03-02T10:36:42;12.60;99.90
23335;DHT22;11839;48.598;8.870;2024-03-02T10:39:09;12.70;99.90
23335;DHT22;11839;48.598;8.870;2024-03-02T10:41:37;13.00;99.90
23335;DHT22;11839;48.598;8.870;2024-03-02T10:44:05;12.90;99.90
23335;DHT22;11839;48.598;8.870;2024-03-02T10:46:33;13.30;99.90
23335;DHT22;11839;48.598;8.870;2024-03-02T10:49:01;13.30;99.90
23335;DHT22;11839;48.598;8.870;2024-03-02T10:51:31;13.30;99.90
23335;DHT22;11839;48.598;8.870;2024-03-02T10:53:59;13.70;99.90
23335;DHT22;11839;48.598;8.870;2024-03-02T10:56:28;13.90;99.90
23335;DHT22;11839;48.598;8.870;2024-03-02T10:59:02;13.80;99.90
23335;DHT22;11839;48.598;8.870;2024-03-02T11:01:31;14.30;99.90
23335;DHT22;11839;48.598;8.870;2024-03-02T11:03:59;14.50;99.90
23335;DHT22;11839;48.598;8.870;2024-03-02T11:06:29;14.50;99.90
23335;DHT22;11839;48.598;8.870;2024-03-02T11:09:00;14.30;99.90
23335;DHT22;11839;48.598;8.870;2024-03-02T11:11:37;14.50;99.90
23335;DHT22;11839;48.598;8.870;2024-03-02T11:14:07;15.00;99.90
23335;DHT22;11839;48.598;8.870;2024-03-02T11:16:38;15.10;99.90
23335;DHT22;11839;48.598;8.870;2024-03-02T11:19:08;14.80;99.90
23335;DHT22;11839;48.598;8.870;2024-03-02T11:21:38;15.10;99.90
23335;DHT22;11839;48.598;8.870;2024-03-02T11:24:32;14.90;99.90
23335;DHT22;11839;48.598;8.870;2024-03-02T11:26:59;14.80;99.90
23335;DHT22;11839;48.598;8.870;2024-03-02T11:29:45;14.80;99.90
23335;DHT22;11839;48.598;8.870;2024-03-02T11:32:21;14.50;99.90
23335;DHT22;11839;48.598;8.870;2024-03-02T11:34:49;14.60;99.90
23335;DHT22;11839;48.598;8.870;2024-03-02T11:37:20;14.70;99.90
23335;DHT22;11839;48.598;8.870;2024-03-02T11:39:49;14.80;99.90
23335;DHT22;11839;48.598;8.870;2024-03-02T11:42:16;15.30;99.90
23335;DHT22;11839;48.598;8.870;2024-03-02T11:44:45;15.50;99.90
23335;DHT22;11839;48.598;8.870;2024-03-02T11:47:13;15.40;99.90
23335;DHT22;11839;48.598;8.870;2024-03-02T11:49:42;15.70;99.90
23335;DHT22;11839;48.598;8.870;2024-03-02T11:52:11;16.00;99.90
23335;DHT22;11839;48.598;8.870;2024-03-02T11:54:41;15.90;99.90
23335;DHT22;11839;48.598;8.870;2024-03-02T11:57:12;15.70;99.90
23335;DHT22;11839;48.598;8.870;2024-03-02T11:59:39;15.60;99.90
23335;DHT22;11839;48.598;8.870;2024-03-02T12:02:06;15.90;99.90
23335;DHT22;11839;48.598;8.870;2024-03-02T12:04:33;15.50;99.90
23335;DHT22;11839;48.598;8.870;2024-03-02T12:07:01;15.70;99.90
23335;DHT22;11839;48.598;8.870;2024-03-02T12:09:28;15.20;99.90
23335;DHT22;11839;48.598;8.870;2024-03-02T12:12:03;15.60;99.90
23335;DHT22;11839;48.598;8.870;2024-03-02T12:14:31;15.40;99.90
23335;DHT22;11839;48.598;8.870;2024-03-02T12:16:58;15.70;99.90
23335;DHT22;11839;48.598;8.870;2024-03-02T12:19:24;15.40;99.90
23335;DHT22;11839;48.598;8.870;2024-03-02T12:21:51;15.60;99.90
23335;DHT22;11839;48.598;8.870;2024-03-02T12:24:18;15.80;99.90
23335;DHT22;11839;48.598;8.870;2024-03-02T12:26:45;16.20;99.90
23335;DHT22;11839;48.598;8.870;2024-03-02T12:29:14;16.40;99.90
23335;DHT22;11839;48.598;8.870;2024-03-02T12:31:43;16.30;99.90
23335;DHT22;11839;48.598;8.870;2024-03-02T12:34:12;16.20;99.90
23335;DHT22;11839;48.598;8.870;2024-03-02T12:36:40;16.10;99.90
23335;DHT22;11839;48.598;8.870;2024-03-02T12:39:07;16.00;99.90
23335;DHT22;11839;48.598;8.870;2024-03-02T12:41:36;16.30;99.90
23335;DHT22;11839;48.598;8.870;2024-03-02T12:44:03;16.60;99.90
23335;DHT22;11839;48.598;8.870;2024-03-02T12:46:32;16.20;99.90
23335;DHT22;11839;48.598;8.870;2024-03-02T12:49:08;16.80;99.90
23335;DHT22;11839;48.598;8.870;2024-03-02T12:51:39;16.90;99.90
23335;DHT22;11839;48.598;8.870;2024-03-02T12:54:09;16.80;99.90
23335;DHT22;11839;48.598;8.870;2024-03-02T12:56:36;17.30;99.90
23335;DHT22;11839;48.598;8.870;2024-03-02T12:59:03;17.40;99.90
23335;DHT22;11839;48.598;8.870;2024-03-02T13:01:32;17.60;99.90
23335;DHT22;11839;48.598;8.870;2024-03-02T13:03:59;17.60;99.90
23335;DHT22;11839;48.598;8.870;2024-03-02T13:06:26;17.10;99.90
23335;DHT22;11839;48.598;8.870;2024-03-02T13:08:54;17.00;99.90
23335;DHT22;11839;48.598;8.870;2024-03-02T13:11:21;16.70;99.90
23335;DHT22;11839;48.598;8.870;2024-03-02T13:13:49;16.80;99.90
23335;DHT22;11839;48.598;8.870;2024-03-02T13:16:16;16.80;99.90
23335;DHT22;11839;48.598;8.870;2024-03-02T13:18:46;16.30;99.90
23335;DHT22;11839;48.598;8.870;2024-03-02T13:21:13;16.40;99.90
23335;DHT22;11839;48.598;8.870;2024-03-02T13:23:40;16.90;99.90
23335;DHT22;11839;48.598;8.870;2024-03-02T13:26:07;17.10;99.90
23335;DHT22;11839;48.598;8.870;2024-03-02T13:28:36;17.20;99.90
23335;DHT22;11839;48.598;8.870;2024-03-02T13:31:03;17.40;99.90
23335;DHT22;11839;48.598;8.870;2024-03-02T13:33:30;17.70;99.90
23335;DHT22;11839;48.598;8.870;2024-03-02T13:35:59;18.50;99.90
23335;DHT22;11839;48.598;8.870;2024-03-02T13:38:27;18.60;99.90
23335;DHT22;11839;48.598;8.870;2024-03-02T13:40:53;17.90;99.90
23335;DHT22;11839;48.598;8.870;2024-03-02T13:43:20;17.80;99.90
23335;DHT22;11839;48.598;8.870;2024-03-02T13:45:49;18.00;99.90
23335;DHT22;11839;48.598;8.870;2024-03-02T13:48:17;17.90;99.90
23335;DHT22;11839;48.598;8.870;2024-03-02T13:50:44;18.40;99.90
23335;DHT22;11839;48.598;8.870;2024-03-02T13:53:12;18.30;99.90
23335;DHT22;11839;48.598;8.870;2024-03-02T13:55:39;18.60;99.90
23335;DHT22;11839;48.598;8.870;2024-03-02T13:58:07;18.80;99.90
23335;DHT22;11839;48.598;8.870;2024-03-02T14:00:34;18.70;99.90
23335;DHT22;11839;48.598;8.870;2024-03-02T14:03:01;19.20;99.90
23335;DHT22;11839;48.598;8.870;2024-03-02T14:05:29;19.30;99.90
23335;DHT22;11839;48.598;8.870;2024-03-02T14:07:55;19.40;99.90
23335;DHT22;11839;48.598;8.870;2024-03-02T14:10:23;19.00;99.90
23335;DHT22;11839;48.598;8.870;2024-03-02T14:12:50;18.60;99.90
23335;DHT22;11839;48.598;8.870;2024-03-02T14:15:17;18.40;99.90
23335;DHT22;11839;48.598;8.870;2024-03-02T14:17:44;17.80;99.90
23335;DHT22;11839;48.598;8.870;2024-03-02T14:20:11;17.30;99.90
23335;DHT22;11839;48.598;8.870;2024-03-02T14:22:39;17.60;99.90
23335;DHT22;11839;48.598;8.870;2024-03-02T14:25:06;17.60;99.90
23335;DHT22;11839;48.598;8.870;2024-03-02T14:27:34;17.60;99.90
23335;DHT22;11839;48.598;8.870;2024-03-02T14:30:01;17.60;99.90
23335;DHT22;11839;48.598;8.870;2024-03-02T14:32:28;17.60;99.90
23335;DHT22;11839;48.598;8.870;2024-03-02T14:34:55;18.00;99.90
23335;DHT22;11839;48.598;8.870;2024-03-02T14:37:23;17.70;99.90
23335;DHT22;11839;48.598;8.870;2024-03-02T14:39:50;17.80;99.90
23335;DHT22;11839;48.598;8.870;2024-03-02T14:42:17;18.00;99.90
23335;DHT22;11839;48.598;8.870;2024-03-02T14:44:45;17.70;99.90
23335;DHT22;11839;48.598;8.870;2024-03-02T14:47:12;17.60;99.90
23335;DHT22;11839;48.598;8.870;2024-03-02T14:49:39;17.30;99.90
23335;DHT22;11839;48.598;8.870;2024-03-02T14:52:07;17.20;99.90
23335;DHT22;11839;48.598;8.870;2024-03-02T14:54:35;16.90;99.90
23335;DHT22;11839;48.598;8.870;2024-03-02T14:57:01;16.40;99.90
23335;DHT22;11839;48.598;8.870;2024-03-02T14:59:29;16.50;99.90
23335;DHT22;11839;48.598;8.870;2024-03-02T15:01:57;16.40;99.90
23335;DHT22;11839;48.598;8.870;2024-03-02T15:04:24;16.30;99.90
23335;DHT22;11839;48.598;8.870;2024-03-02T15:06:50;16.40;99.90
23335;DHT22;11839;48.598;8.870;2024-03-02T15:09:17;16.40;99.90
23335;DHT22;11839;48.598;8.870;2024-03-02T15:11:45;16.50;99.90
23335;DHT22;11839;48.598;8.870;2024-03-02T15:14:12;16.70;99.90
23335;DHT22;11839;48.598;8.870;2024-03-02T15:16:39;16.30;99.90
23335;DHT22;11839;48.598;8.870;2024-03-02T15:19:08;16.20;99.90
23335;DHT22;11839;48.598;8.870;2024-03-02T15:21:35;16.40;99.90
23335;DHT22;11839;48.598;8.870;2024-03-02T15:24:02;16.40;99.90
23335;DHT22;11839;48.598;8.870;2024-03-02T15:26:29;16.80;99.90
23335;DHT22;11839;48.598;8.870;2024-03-02T15:28:56;17.10;99.90
23335;DHT22;11839;48.598;8.870;2024-03-02T15:31:24;17.00;99.90
23335;DHT22;11839;48.598;8.870;2024-03-02T15:33:51;16.80;99.90
23335;DHT22;11839;48.598;8.870;2024-03-02T15:36:20;17.10;99.90
23335;DHT22;11839;48.598;8.870;2024-03-02T15:38:47;17.50;99.90
23335;DHT22;11839;48.598;8.870;2024-03-02T15:41:13;17.50;99.90
23335;DHT22;11839;48.598;8.870;2024-03-02T15:43:40;17.40;99.90
23335;DHT22;11839;48.598;8.870;2024-03-02T15:46:08;17.50;99.90